sensor_id;sensor_type;location;lat;lon;timestamp;pressure;altitude;pressure_sealevel;temperature;humidity
38880;BME280;25887;30.194;-97.880;2023-11-21T00:01:05;97965.69;;;24.30;42.55
38880;BME280;25887;30.194;-97.880;2023-11-21T00:03:34;97961.66;;;24.24;42.66
38880;BME280;25887;30.194;-97.880;2023-11-21T00:06:01;97971.69;;;24.17;42.76
38880;BME280;25887;30.194;-97.880;2023-11-21T00:08:29;97979.94;;;24.11;42.85
38880;BME280;25887;30.194;-97.880;2023-11-21T00:10:57;97974.25;;;24.05;43.04
38880;BME280;25887;30.194;-97.880;2023-11-21T00:13:26;97981.69;;;23.97;42.98
38880;BME280;25887;30.194;-97.880;2023-11-21T00:15:52;97990.03;;;23.89;43.12
38880;BME280;25887;30.194;-97.880;2023-11-21T00:18:19;97997.47;;;23.82;43.14
38880;BME280;25887;30.194;-97.880;2023-11-21T00:20:49;98004.75;;;23.77;43.16
38880;BME280;25887;30.194;-97.880;2023-11-21T00:23:16;98016.53;;;23.70;43.31
38880;BME280;25887;30.194;-97.880;2023-11-21T00:25:44;98020.19;;;23.68;43.32
38880;BME280;25887;30.194;-97.880;2023-11-21T00:28:10;98031.13;;;23.60;43.39
38880;BME280;25887;30.194;-97.880;2023-11-21T00:30:38;98039.97;;;23.57;43.33
38880;BME280;25887;30.194;-97.880;2023-11-21T00:33:07;98044.66;;;23.52;43.54
38880;BME280;25887;30.194;-97.880;2023-11-21T00:35:35;98057.19;;;23.47;43.58
38880;BME280;25887;30.194;-97.880;2023-11-21T00:38:01;98065.47;;;23.40;43.56
38880;BME280;25887;30.194;-97.880;2023-11-21T00:40:29;98064.03;;;23.34;43.67
38880;BME280;25887;30.194;-97.880;2023-11-21T00:42:56;98066.94;;;23.29;43.44
38880;BME280;25887;30.194;-97.880;2023-11-21T00:45:27;98072.34;;;23.26;43.47
38880;BME280;25887;30.194;-97.880;2023-11-21T00:47:53;98088.34;;;23.22;43.52
38880;BME280;25887;30.194;-97.880;2023-11-21T00:50:21;98097.28;;;23.18;43.30
38880;BME280;25887;30.194;-97.880;2023-11-21T00:52:50;98094.09;;;23.13;43.41
38880;BME280;25887;30.194;-97.880;2023-11-21T00:55:19;98111.75;;;23.09;43.40
38880;BME280;25887;30.194;-97.880;2023-11-21T00:57:48;98118.84;;;23.07;43.34
38880;BME280;25887;30.194;-97.880;2023-11-21T01:00:16;98128.72;;;23.02;43.56
38880;BME280;25887;30.194;-97.880;2023-11-21T01:02:45;98139.38;;;22.99;43.16
38880;BME280;25887;30.194;-97.880;2023-11-21T01:05:15;98148.31;;;22.95;43.07
38880;BME280;25887;30.194;-97.880;2023-11-21T01:07:43;98158.06;;;22.93;42.52
38880;BME280;25887;30.194;-97.880;2023-11-21T01:10:09;98164.31;;;22.90;43.10
38880;BME280;25887;30.194;-97.880;2023-11-21T01:12:37;98167.03;;;22.89;42.70
38880;BME280;25887;30.194;-97.880;2023-11-21T01:15:07;98174.19;;;22.85;42.70
38880;BME280;25887;30.194;-97.880;2023-11-21T01:17:36;98177.69;;;22.84;42.88
38880;BME280;25887;30.194;-97.880;2023-11-21T01:20:05;98179.66;;;22.80;42.96
38880;BME280;25887;30.194;-97.880;2023-11-21T01:22:39;98179.78;;;22.77;43.05
38880;BME280;25887;30.194;-97.880;2023-11-21T01:25:06;98185.19;;;22.74;43.00
38880;BME280;25887;30.194;-97.880;2023-11-21T01:27:37;98185.34;;;22.71;43.26
38880;BME280;25887;30.194;-97.880;2023-11-21T01:30:24;98201.06;;;22.71;43.56
38880;BME280;25887;30.194;-97.880;2023-11-21T01:32:51;98198.78;;;22.65;43.43
38880;BME280;25887;30.194;-97.880;2023-11-21T01:38:39;98221.91;;;22.57;43.80
38880;BME280;25887;30.194;-97.880;2023-11-21T01:41:08;98219.59;;;22.51;43.87
38880;BME280;25887;30.194;-97.880;2023-11-21T01:43:37;98229.28;;;22.49;43.87
38880;BME280;25887;30.194;-97.880;2023-11-21T01:46:05;98234.66;;;22.46;43.85
38880;BME280;25887;30.194;-97.880;2023-11-21T01:48:32;98238.38;;;22.42;44.11
38880;BME280;25887;30.194;-97.880;2023-11-21T01:51:00;98243.75;;;22.39;44.02
38880;BME280;25887;30.194;-97.880;2023-11-21T01:53:30;98250.84;;;22.37;44.14
38880;BME280;25887;30.194;-97.880;2023-11-21T01:55:57;98256.25;;;22.34;44.12
38880;BME280;25887;30.194;-97.880;2023-11-21T01:58:24;98274.69;;;22.31;44.50
38880;BME280;25887;30.194;-97.880;2023-11-21T02:00:50;98277.47;;;22.28;44.01
38880;BME280;25887;30.194;-97.880;2023-11-21T02:03:18;98267.31;;;22.21;44.39
38880;BME280;25887;30.194;-97.880;2023-11-21T02:05:45;98280.47;;;22.20;44.63
38880;BME280;25887;30.194;-97.880;2023-11-21T02:08:12;98291.00;;;22.18;44.70
38880;BME280;25887;30.194;-97.880;2023-11-21T02:10:38;98297.13;;;22.17;44.45
38880;BME280;25887;30.194;-97.880;2023-11-21T02:13:05;98292.91;;;22.15;44.47
38880;BME280;25887;30.194;-97.880;2023-11-21T02:15:31;98298.22;;;22.13;44.49
38880;BME280;25887;30.194;-97.880;2023-11-21T02:17:58;98301.84;;;22.11;44.67
38880;BME280;25887;30.194;-97.880;2023-11-21T02:20:24;98306.34;;;22.07;44.54
38880;BME280;25887;30.194;-97.880;2023-11-21T02:22:52;98308.19;;;22.05;44.78
38880;BME280;25887;30.194;-97.880;2023-11-21T02:25:33;98306.50;;;22.04;45.07
38880;BME280;25887;30.194;-97.880;2023-11-21T02:28:01;98308.47;;;21.99;44.69
38880;BME280;25887;30.194;-97.880;2023-11-21T02:30:28;98318.94;;;21.99;45.16
38880;BME280;25887;30.194;-97.880;2023-11-21T02:32:57;98308.63;;;21.96;45.24
38880;BME280;25887;30.194;-97.880;2023-11-21T02:35:24;98320.00;;;21.95;45.00
38880;BME280;25887;30.194;-97.880;2023-11-21T02:37:52;98321.06;;;21.91;44.92
38880;BME280;25887;30.194;-97.880;2023-11-21T02:40:18;98329.09;;;21.86;45.07
38880;BME280;25887;30.194;-97.880;2023-11-21T02:42:49;98338.03;;;21.82;45.28
38880;BME280;25887;30.194;-97.880;2023-11-21T02:45:20;98353.00;;;21.79;45.28
38880;BME280;25887;30.194;-97.880;2023-11-21T02:47:47;98349.75;;;21.74;45.41
38880;BME280;25887;30.194;-97.880;2023-11-21T02:50:14;98349.97;;;21.69;45.32
38880;BME280;25887;30.194;-97.880;2023-11-21T02:52:41;98359.66;;;21.67;45.45
38880;BME280;25887;30.194;-97.880;2023-11-21T02:55:07;98357.22;;;21.62;45.21
38880;BME280;25887;30.194;-97.880;2023-11-21T02:57:34;98365.16;;;21.61;45.23
38880;BME280;25887;30.194;-97.880;2023-11-21T03:00:02;98374.91;;;21.57;45.04
38880;BME280;25887;30.194;-97.880;2023-11-21T03:02:29;98374.19;;;21.54;45.26
38880;BME280;25887;30.194;-97.880;2023-11-21T03:04:55;98378.78;;;21.49;45.24
38880;BME280;25887;30.194;-97.880;2023-11-21T03:07:21;98373.75;;;21.44;45.43
38880;BME280;25887;30.194;-97.880;2023-11-21T03:09:47;98381.66;;;21.42;45.23
38880;BME280;25887;30.194;-97.880;2023-11-21T03:12:13;98373.94;;;21.39;45.59
38880;BME280;25887;30.194;-97.880;2023-11-21T03:14:40;98387.28;;;21.33;45.52
38880;BME280;25887;30.194;-97.880;2023-11-21T03:17:06;98396.16;;;21.29;45.27
38880;BME280;25887;30.194;-97.880;2023-11-21T03:19:32;98406.72;;;21.26;45.42
38880;BME280;25887;30.194;-97.880;2023-11-21T03:21:59;98406.00;;;21.23;45.44
38880;BME280;25887;30.194;-97.880;2023-11-21T03:24:25;98410.50;;;21.19;45.80
38880;BME280;25887;30.194;-97.880;2023-11-21T03:26:52;98414.16;;;21.15;45.40
38880;BME280;25887;30.194;-97.880;2023-11-21T03:29:18;98410.84;;;21.11;45.77
38880;BME280;25887;30.194;-97.880;2023-11-21T03:31:44;98423.16;;;21.08;45.63
38880;BME280;25887;30.194;-97.880;2023-11-21T03:34:16;98431.13;;;21.05;45.57
38880;BME280;25887;30.194;-97.880;2023-11-21T03:36:43;98421.72;;;21.01;45.48
38880;BME280;25887;30.194;-97.880;2023-11-21T03:39:09;98441.91;;;20.97;45.56
38880;BME280;25887;30.194;-97.880;2023-11-21T03:41:35;98444.69;;;20.93;45.80
38880;BME280;25887;30.194;-97.880;2023-11-21T03:44:01;98458.66;;;20.92;45.56
38880;BME280;25887;30.194;-97.880;2023-11-21T03:46:28;98457.88;;;20.90;45.52
38880;BME280;25887;30.194;-97.880;2023-11-21T03:48:54;98458.88;;;20.87;45.93
38880;BME280;25887;30.194;-97.880;2023-11-21T03:51:21;98457.28;;;20.83;45.95
38880;BME280;25887;30.194;-97.880;2023-11-21T03:53:47;98466.94;;;20.81;46.04
38880;BME280;25887;30.194;-97.880;2023-11-21T03:56:14;98474.03;;;20.77;46.12
38880;BME280;25887;30.194;-97.880;2023-11-21T03:58:40;98468.94;;;20.74;45.93
38880;BME280;25887;30.194;-97.880;2023-11-21T04:01:06;98467.31;;;20.72;46.07
38880;BME280;25887;30.194;-97.880;2023-11-21T04:03:32;98488.31;;;20.69;46.20
38880;BME280;25887;30.194;-97.880;2023-11-21T04:05:58;98491.81;;;20.68;46.02
38880;BME280;25887;30.194;-97.880;2023-11-21T04:08:26;98484.13;;;20.65;46.17
38880;BME280;25887;30.194;-97.880;2023-11-21T04:10:52;98486.84;;;20.62;46.18
38880;BME280;25887;30.194;-97.880;2023-11-21T04:13:19;98485.13;;;20.61;46.04
38880;BME280;25887;30.194;-97.880;2023-11-21T04:15:45;98478.34;;;20.56;46.35
38880;BME280;25887;30.194;-97.880;2023-11-21T04:18:12;98485.41;;;20.54;46.19
38880;BME280;25887;30.194;-97.880;2023-11-21T04:20:38;98497.69;;;20.51;46.35
38880;BME280;25887;30.194;-97.880;2023-11-21T04:23:04;98493.53;;;20.47;46.50
38880;BME280;25887;30.194;-97.880;2023-11-21T04:25:30;98496.25;;;20.44;46.51
38880;BME280;25887;30.194;-97.880;2023-11-21T04:27:56;98492.88;;;20.40;46.40
38880;BME280;25887;30.194;-97.880;2023-11-21T04:30:22;98501.72;;;20.36;46.61
38880;BME280;25887;30.194;-97.880;2023-11-21T04:32:49;98486.25;;;20.31;46.60
38880;BME280;25887;30.194;-97.880;2023-11-21T04:35:16;98489.81;;;20.29;46.70
38880;BME280;25887;30.194;-97.880;2023-11-21T04:37:43;98488.22;;;20.25;46.45
38880;BME280;25887;30.194;-97.880;2023-11-21T04:40:09;98485.84;;;20.19;46.68
38880;BME280;25887;30.194;-97.880;2023-11-21T04:42:36;98500.72;;;20.17;46.61
38880;BME280;25887;30.194;-97.880;2023-11-21T04:45:06;98497.41;;;20.12;46.46
38880;BME280;25887;30.194;-97.880;2023-11-21T04:47:37;98486.25;;;20.08;46.68
38880;BME280;25887;30.194;-97.880;2023-11-21T04:50:04;98495.94;;;20.04;46.79
38880;BME280;25887;30.194;-97.880;2023-11-21T04:52:31;98496.13;;;20.00;46.59
38880;BME280;25887;30.194;-97.880;2023-11-21T04:54:59;98511.00;;;19.96;46.64
38880;BME280;25887;30.194;-97.880;2023-11-21T04:57:26;98520.66;;;19.94;46.82
38880;BME280;25887;30.194;-97.880;2023-11-21T04:59:54;98535.50;;;19.92;46.91
38880;BME280;25887;30.194;-97.880;2023-11-21T05:02:20;98528.69;;;19.88;46.69
38880;BME280;25887;30.194;-97.880;2023-11-21T05:04:47;98524.44;;;19.86;46.87
38880;BME280;25887;30.194;-97.880;2023-11-21T05:07:15;98521.84;;;19.84;46.75
38880;BME280;25887;30.194;-97.880;2023-11-21T05:09:43;98518.50;;;19.81;46.83
38880;BME280;25887;30.194;-97.880;2023-11-21T05:12:13;98523.84;;;19.78;46.91
38880;BME280;25887;30.194;-97.880;2023-11-21T05:14:41;98531.75;;;19.74;47.14
38880;BME280;25887;30.194;-97.880;2023-11-21T05:17:20;98534.53;;;19.70;46.94
38880;BME280;25887;30.194;-97.880;2023-11-21T05:19:46;98541.53;;;19.68;46.80
38880;BME280;25887;30.194;-97.880;2023-11-21T05:22:14;98551.28;;;19.63;46.93
38880;BME280;25887;30.194;-97.880;2023-11-21T05:24:40;98560.91;;;19.61;46.68
38880;BME280;25887;30.194;-97.880;2023-11-21T05:27:06;98580.19;;;19.55;46.88
38880;BME280;25887;30.194;-97.880;2023-11-21T05:29:34;98583.72;;;19.53;47.04
38880;BME280;25887;30.194;-97.880;2023-11-21T05:32:00;98579.41;;;19.52;46.97
38880;BME280;25887;30.194;-97.880;2023-11-21T05:34:26;98579.53;;;19.48;47.02
38880;BME280;25887;30.194;-97.880;2023-11-21T05:36:52;98578.72;;;19.46;46.99
38880;BME280;25887;30.194;-97.880;2023-11-21T05:39:19;98586.63;;;19.43;46.87
38880;BME280;25887;30.194;-97.880;2023-11-21T05:41:46;98575.47;;;19.40;46.98
38880;BME280;25887;30.194;-97.880;2023-11-21T05:44:12;98571.31;;;19.34;46.97
38880;BME280;25887;30.194;-97.880;2023-11-21T05:46:40;98573.13;;;19.32;46.97
38880;BME280;25887;30.194;-97.880;2023-11-21T05:49:08;98580.16;;;19.29;47.06
38880;BME280;25887;30.194;-97.880;2023-11-21T05:51:37;98584.56;;;19.27;46.91
38880;BME280;25887;30.194;-97.880;2023-11-21T05:54:04;98586.44;;;19.23;47.19
38880;BME280;25887;30.194;-97.880;2023-11-21T05:56:30;98593.44;;;19.21;46.97
38880;BME280;25887;30.194;-97.880;2023-11-21T06:01:42;98593.63;;;19.15;47.13
38880;BME280;25887;30.194;-97.880;2023-11-21T06:04:08;98599.72;;;19.14;46.95
38880;BME280;25887;30.194;-97.880;2023-11-21T06:06:35;98584.22;;;19.11;47.08
38880;BME280;25887;30.194;-97.880;2023-11-21T06:09:02;98588.66;;;19.07;47.15
38880;BME280;25887;30.194;-97.880;2023-11-21T06:11:28;98586.09;;;19.06;47.08
38880;BME280;25887;30.194;-97.880;2023-11-21T06:13:54;98595.72;;;19.04;47.16
38880;BME280;25887;30.194;-97.880;2023-11-21T06:16:21;98600.13;;;19.02;47.26
38880;BME280;25887;30.194;-97.880;2023-11-21T06:18:47;98601.94;;;18.98;47.28
38880;BME280;25887;30.194;-97.880;2023-11-21T06:21:13;98596.00;;;18.95;47.36
38880;BME280;25887;30.194;-97.880;2023-11-21T06:23:41;98597.81;;;18.92;47.45
38880;BME280;25887;30.194;-97.880;2023-11-21T06:26:07;98592.66;;;18.89;47.37
38880;BME280;25887;30.194;-97.880;2023-11-21T06:28:35;98599.69;;;18.87;47.33
38880;BME280;25887;30.194;-97.880;2023-11-21T06:31:04;98596.28;;;18.85;47.48
38880;BME280;25887;30.194;-97.880;2023-11-21T06:33:31;98601.53;;;18.84;47.49
38880;BME280;25887;30.194;-97.880;2023-11-21T06:35:58;98612.88;;;18.81;47.44
38880;BME280;25887;30.194;-97.880;2023-11-21T06:38:24;98604.22;;;18.81;47.61
38880;BME280;25887;30.194;-97.880;2023-11-21T06:40:53;98606.06;;;18.77;47.73
38880;BME280;25887;30.194;-97.880;2023-11-21T06:43:27;98614.00;;;18.73;48.09
38880;BME280;25887;30.194;-97.880;2023-11-21T06:45:54;98611.44;;;18.71;47.83
38880;BME280;25887;30.194;-97.880;2023-11-21T06:48:20;98611.53;;;18.68;47.69
38880;BME280;25887;30.194;-97.880;2023-11-21T06:50:46;98612.47;;;18.64;47.71
38880;BME280;25887;30.194;-97.880;2023-11-21T06:53:12;98592.66;;;18.60;47.87
38880;BME280;25887;30.194;-97.880;2023-11-21T06:55:39;98589.22;;;18.58;47.80
38880;BME280;25887;30.194;-97.880;2023-11-21T06:58:05;98599.69;;;18.56;47.82
38880;BME280;25887;30.194;-97.880;2023-11-21T07:00:32;98616.25;;;18.54;47.95
38880;BME280;25887;30.194;-97.880;2023-11-21T07:02:58;98612.00;;;18.50;47.87
38880;BME280;25887;30.194;-97.880;2023-11-21T07:05:24;98611.22;;;18.48;47.87
38880;BME280;25887;30.194;-97.880;2023-11-21T07:07:50;98606.91;;;18.47;47.94
38880;BME280;25887;30.194;-97.880;2023-11-21T07:10:35;98622.53;;;18.47;48.14
38880;BME280;25887;30.194;-97.880;2023-11-21T07:13:02;98624.34;;;18.43;48.03
38880;BME280;25887;30.194;-97.880;2023-11-21T07:15:28;98624.44;;;18.40;48.14
38880;BME280;25887;30.194;-97.880;2023-11-21T07:17:54;98630.53;;;18.39;48.12
38880;BME280;25887;30.194;-97.880;2023-11-21T07:20:20;98641.00;;;18.36;48.28
38880;BME280;25887;30.194;-97.880;2023-11-21T07:22:47;98636.75;;;18.33;48.41
38880;BME280;25887;30.194;-97.880;2023-11-21T07:25:13;98640.25;;;18.32;48.39
38880;BME280;25887;30.194;-97.880;2023-11-21T07:27:39;98640.31;;;18.31;48.17
38880;BME280;25887;30.194;-97.880;2023-11-21T07:30:06;98647.31;;;18.27;48.41
38880;BME280;25887;30.194;-97.880;2023-11-21T07:32:33;98651.66;;;18.27;48.33
38880;BME280;25887;30.194;-97.880;2023-11-21T07:35:00;98664.72;;;18.25;48.41
38880;BME280;25887;30.194;-97.880;2023-11-21T07:37:27;98674.28;;;18.25;48.61
38880;BME280;25887;30.194;-97.880;2023-11-21T07:39:56;98679.56;;;18.22;48.70
38880;BME280;25887;30.194;-97.880;2023-11-21T07:42:23;98686.50;;;18.21;48.75
38880;BME280;25887;30.194;-97.880;2023-11-21T07:44:52;98679.56;;;18.20;48.52
38880;BME280;25887;30.194;-97.880;2023-11-21T07:47:18;98681.38;;;18.18;48.51
38880;BME280;25887;30.194;-97.880;2023-11-21T07:49:44;98678.88;;;18.15;48.79
38880;BME280;25887;30.194;-97.880;2023-11-21T07:52:12;98684.09;;;18.14;48.56
38880;BME280;25887;30.194;-97.880;2023-11-21T07:54:38;98688.50;;;18.10;48.56
38880;BME280;25887;30.194;-97.880;2023-11-21T07:57:05;98694.63;;;18.09;48.72
38880;BME280;25887;30.194;-97.880;2023-11-21T07:59:31;98696.41;;;18.07;48.76
38880;BME280;25887;30.194;-97.880;2023-11-21T08:01:57;98696.44;;;18.05;48.59
38880;BME280;25887;30.194;-97.880;2023-11-21T08:04:23;98700.84;;;18.02;48.75
38880;BME280;25887;30.194;-97.880;2023-11-21T08:06:49;98704.31;;;18.02;48.76
38880;BME280;25887;30.194;-97.880;2023-11-21T08:09:16;98706.94;;;18.01;48.93
38880;BME280;25887;30.194;-97.880;2023-11-21T08:11:43;98711.31;;;18.00;48.91
38880;BME280;25887;30.194;-97.880;2023-11-21T08:14:09;98718.28;;;17.98;48.75
38880;BME280;25887;30.194;-97.880;2023-11-21T08:16:35;98718.34;;;17.95;48.99
38880;BME280;25887;30.194;-97.880;2023-11-21T08:19:01;98716.72;;;17.91;49.01
38880;BME280;25887;30.194;-97.880;2023-11-21T08:21:28;98727.13;;;17.90;48.80
38880;BME280;25887;30.194;-97.880;2023-11-21T08:23:54;98739.31;;;17.88;49.01
38880;BME280;25887;30.194;-97.880;2023-11-21T08:26:21;98741.97;;;17.86;49.14
38880;BME280;25887;30.194;-97.880;2023-11-21T08:28:48;98741.16;;;17.84;49.07
38880;BME280;25887;30.194;-97.880;2023-11-21T08:31:14;98750.75;;;17.80;49.15
38880;BME280;25887;30.194;-97.880;2023-11-21T08:33:41;98749.03;;;17.79;48.94
38880;BME280;25887;30.194;-97.880;2023-11-21T08:36:10;98751.72;;;17.76;49.13
38880;BME280;25887;30.194;-97.880;2023-11-21T08:38:37;98762.16;;;17.75;49.15
38880;BME280;25887;30.194;-97.880;2023-11-21T08:41:07;98772.56;;;17.73;49.00
38880;BME280;25887;30.194;-97.880;2023-11-21T08:43:36;98770.91;;;17.71;49.20
38880;BME280;25887;30.194;-97.880;2023-11-21T08:46:06;98773.50;;;17.69;49.17
38880;BME280;25887;30.194;-97.880;2023-11-21T08:48:35;98782.19;;;17.68;49.09
38880;BME280;25887;30.194;-97.880;2023-11-21T08:51:03;98794.34;;;17.68;48.87
38880;BME280;25887;30.194;-97.880;2023-11-21T08:53:30;98796.09;;;17.67;49.14
38880;BME280;25887;30.194;-97.880;2023-11-21T08:55:57;98789.19;;;17.65;48.88
38880;BME280;25887;30.194;-97.880;2023-11-21T08:58:24;98789.16;;;17.66;48.98
38880;BME280;25887;30.194;-97.880;2023-11-21T09:00:50;98797.00;;;17.65;49.15
38880;BME280;25887;30.194;-97.880;2023-11-21T09:03:17;98801.41;;;17.61;48.96
38880;BME280;25887;30.194;-97.880;2023-11-21T09:05:43;98806.66;;;17.60;49.00
38880;BME280;25887;30.194;-97.880;2023-11-21T09:08:10;98796.34;;;17.55;49.12
38880;BME280;25887;30.194;-97.880;2023-11-21T09:10:36;98820.69;;;17.51;49.40
38880;BME280;25887;30.194;-97.880;2023-11-21T09:13:02;98835.47;;;17.47;49.14
38880;BME280;25887;30.194;-97.880;2023-11-21T09:15:29;98841.59;;;17.45;49.50
38880;BME280;25887;30.194;-97.880;2023-11-21T09:17:55;98837.38;;;17.39;49.54
38880;BME280;25887;30.194;-97.880;2023-11-21T09:20:22;98840.03;;;17.35;49.26
38880;BME280;25887;30.194;-97.880;2023-11-21T09:22:50;98834.91;;;17.32;49.41
38880;BME280;25887;30.194;-97.880;2023-11-21T09:25:16;98848.88;;;17.27;49.28
38880;BME280;25887;30.194;-97.880;2023-11-21T09:27:42;98846.34;;;17.23;49.31
38880;BME280;25887;30.194;-97.880;2023-11-21T09:30:16;98855.91;;;17.19;49.50
38880;BME280;25887;30.194;-97.880;2023-11-21T09:32:42;98849.97;;;17.14;49.38
38880;BME280;25887;30.194;-97.880;2023-11-21T09:35:11;98855.22;;;17.11;49.31
38880;BME280;25887;30.194;-97.880;2023-11-21T09:37:39;98864.84;;;17.06;49.26
38880;BME280;25887;30.194;-97.880;2023-11-21T09:40:10;98868.31;;;17.05;49.54
38880;BME280;25887;30.194;-97.880;2023-11-21T09:42:54;98863.16;;;17.02;49.40
38880;BME280;25887;30.194;-97.880;2023-11-21T09:45:28;98864.97;;;16.98;49.41
38880;BME280;25887;30.194;-97.880;2023-11-21T09:47:55;98858.16;;;16.93;49.54
38880;BME280;25887;30.194;-97.880;2023-11-21T09:50:22;98853.03;;;16.90;49.69
38880;BME280;25887;30.194;-97.880;2023-11-21T09:53:16;98837.50;;;16.87;49.79
38880;BME280;25887;30.194;-97.880;2023-11-21T09:55:44;98841.06;;;16.80;49.53
38880;BME280;25887;30.194;-97.880;2023-11-21T09:58:12;98843.75;;;16.77;49.66
38880;BME280;25887;30.194;-97.880;2023-11-21T10:00:47;98840.31;;;16.75;49.74
38880;BME280;25887;30.194;-97.880;2023-11-21T10:03:14;98836.06;;;16.70;49.60
38880;BME280;25887;30.194;-97.880;2023-11-21T10:05:45;98829.22;;;16.63;49.53
38880;BME280;25887;30.194;-97.880;2023-11-21T10:08:13;98834.47;;;16.60;49.86
38880;BME280;25887;30.194;-97.880;2023-11-21T10:10:44;98838.00;;;16.56;49.55
38880;BME280;25887;30.194;-97.880;2023-11-21T10:13:14;98838.97;;;16.51;49.64
38880;BME280;25887;30.194;-97.880;2023-11-21T10:15:44;98831.25;;;16.46;49.60
38880;BME280;25887;30.194;-97.880;2023-11-21T10:18:15;98835.66;;;16.42;49.51
38880;BME280;25887;30.194;-97.880;2023-11-21T10:20:41;98836.53;;;16.40;49.69
38880;BME280;25887;30.194;-97.880;2023-11-21T10:23:09;98846.97;;;16.37;49.56
38880;BME280;25887;30.194;-97.880;2023-11-21T10:25:38;98850.50;;;16.31;49.62
38880;BME280;25887;30.194;-97.880;2023-11-21T10:28:04;98854.88;;;16.29;49.50
38880;BME280;25887;30.194;-97.880;2023-11-21T10:33:03;98848.94;;;16.21;49.22
38880;BME280;25887;30.194;-97.880;2023-11-21T10:35:59;98848.94;;;16.21;49.42
38880;BME280;25887;30.194;-97.880;2023-11-21T10:38:27;98857.66;;;16.15;49.36
38880;BME280;25887;30.194;-97.880;2023-11-21T10:40:54;98850.81;;;16.11;49.34
38880;BME280;25887;30.194;-97.880;2023-11-21T10:43:24;98852.56;;;16.09;49.50
38880;BME280;25887;30.194;-97.880;2023-11-21T10:45:51;98852.59;;;16.08;49.33
38880;BME280;25887;30.194;-97.880;2023-11-21T10:48:17;98850.03;;;16.06;49.12
38880;BME280;25887;30.194;-97.880;2023-11-21T10:50:46;98860.44;;;16.03;49.12
38880;BME280;25887;30.194;-97.880;2023-11-21T10:53:13;98849.22;;;16.01;49.23
38880;BME280;25887;30.194;-97.880;2023-11-21T10:55:40;98872.53;;;16.03;49.21
38880;BME280;25887;30.194;-97.880;2023-11-21T10:58:06;98858.72;;;16.01;49.30
38880;BME280;25887;30.194;-97.880;2023-11-21T11:00:33;98870.84;;;16.00;49.11
38880;BME280;25887;30.194;-97.880;2023-11-21T11:03:00;98854.38;;;16.03;49.23
38880;BME280;25887;30.194;-97.880;2023-11-21T11:05:28;98859.59;;;16.01;49.28
38880;BME280;25887;30.194;-97.880;2023-11-21T11:08:08;98863.88;;;16.02;49.14
38880;BME280;25887;30.194;-97.880;2023-11-21T11:10:38;98862.19;;;16.01;49.16
38880;BME280;25887;30.194;-97.880;2023-11-21T11:13:04;98871.66;;;16.02;49.11
38880;BME280;25887;30.194;-97.880;2023-11-21T11:15:32;98880.28;;;16.03;49.19
38880;BME280;25887;30.194;-97.880;2023-11-21T11:17:59;98895.00;;;16.04;49.21
38880;BME280;25887;30.194;-97.880;2023-11-21T11:20:31;98896.72;;;16.05;49.34
38880;BME280;25887;30.194;-97.880;2023-11-21T11:25:45;98901.03;;;16.04;49.18
38880;BME280;25887;30.194;-97.880;2023-11-21T11:28:21;98901.03;;;16.04;49.43
38880;BME280;25887;30.194;-97.880;2023-11-21T11:31:13;98913.09;;;16.07;49.20
38880;BME280;25887;30.194;-97.880;2023-11-21T11:33:43;98913.13;;;16.04;49.12
38880;BME280;25887;30.194;-97.880;2023-11-21T11:38:55;98914.00;;;16.01;49.29
38880;BME280;25887;30.194;-97.880;2023-11-21T11:41:31;98923.50;;;16.04;49.30
38880;BME280;25887;30.194;-97.880;2023-11-21T11:47:19;98932.13;;;16.03;49.39
38880;BME280;25887;30.194;-97.880;2023-11-21T11:50:06;98933.88;;;16.02;49.34
38880;BME280;25887;30.194;-97.880;2023-11-21T11:52:35;98941.66;;;16.01;49.34
38880;BME280;25887;30.194;-97.880;2023-11-21T11:55:06;98947.72;;;16.01;49.42
38880;BME280;25887;30.194;-97.880;2023-11-21T11:57:35;98952.00;;;16.02;49.21
38880;BME280;25887;30.194;-97.880;2023-11-21T12:02:48;98961.53;;;16.00;49.09
38880;BME280;25887;30.194;-97.880;2023-11-21T12:05:20;98965.03;;;15.98;49.05
38880;BME280;25887;30.194;-97.880;2023-11-21T12:07:51;98983.16;;;15.99;48.98
38880;BME280;25887;30.194;-97.880;2023-11-21T12:10:26;98971.97;;;15.97;48.87
38880;BME280;25887;30.194;-97.880;2023-11-21T12:12:54;98978.88;;;15.95;48.42
38880;BME280;25887;30.194;-97.880;2023-11-21T12:15:21;98992.72;;;15.94;48.20
38880;BME280;25887;30.194;-97.880;2023-11-21T12:17:49;98992.75;;;15.91;48.12
38880;BME280;25887;30.194;-97.880;2023-11-21T12:20:18;98996.25;;;15.87;48.46
38880;BME280;25887;30.194;-97.880;2023-11-21T12:22:46;99015.25;;;15.89;48.08
38880;BME280;25887;30.194;-97.880;2023-11-21T12:25:16;99019.56;;;15.88;48.16
38880;BME280;25887;30.194;-97.880;2023-11-21T12:27:49;99035.09;;;15.90;48.03
38880;BME280;25887;30.194;-97.880;2023-11-21T12:30:17;99039.44;;;15.90;48.07
38880;BME280;25887;30.194;-97.880;2023-11-21T12:32:45;99033.41;;;15.87;47.74
38880;BME280;25887;30.194;-97.880;2023-11-21T12:35:13;99045.50;;;15.85;47.98
38880;BME280;25887;30.194;-97.880;2023-11-21T12:37:40;99048.06;;;15.87;47.47
38880;BME280;25887;30.194;-97.880;2023-11-21T12:40:10;99054.13;;;15.86;47.53
38880;BME280;25887;30.194;-97.880;2023-11-21T12:42:48;99049.81;;;15.85;47.68
38880;BME280;25887;30.194;-97.880;2023-11-21T12:45:18;99067.13;;;15.83;46.81
38880;BME280;25887;30.194;-97.880;2023-11-21T12:47:49;99071.47;;;15.79;47.30
38880;BME280;25887;30.194;-97.880;2023-11-21T12:50:24;99075.81;;;15.77;47.26
38880;BME280;25887;30.194;-97.880;2023-11-21T12:52:57;99076.72;;;15.75;47.05
38880;BME280;25887;30.194;-97.880;2023-11-21T12:55:24;99090.53;;;15.74;47.29
38880;BME280;25887;30.194;-97.880;2023-11-21T12:57:55;99096.56;;;15.76;47.07
38880;BME280;25887;30.194;-97.880;2023-11-21T13:00:38;99102.59;;;15.76;47.17
38880;BME280;25887;30.194;-97.880;2023-11-21T13:03:06;99111.25;;;15.75;47.31
38880;BME280;25887;30.194;-97.880;2023-11-21T13:05:34;99124.22;;;15.74;47.05